Ann Arbor, MI

8:18 AM EST on February 07, 2016 (GMT -0500)
Leslie Park Golf Course | | Change Station
CLOSE
Current Station
Personal Weather Station
Location: Ann Arbor, MI
Elevation: 906 ft
Nearby Weather Stations

Elev 906 ft 42.31 °N, 83.72 °W | Updated 10 seconds ago

Clear
Clear
32.5 °F
Feels Like 32 °F
N
1.0
Wind Variable Wind from SSW
Gusts 3.0 mph

Today
High -- | Low -- °F
--% Chance of Precip.
Yesterday
High -- | Low -- °F
Precip. -- in
Pressure 29.99 in
Visibility 7.0 miles
Clouds Few 12000 ft
Windchill 32 °F
Dew Point 28 °F
Humidity 85%
Rainfall 0.00 in
Snow Depth Not available.
7:42 AM 5:56 PM
Waning Crescent, 2% visible
METAR KARB 071253Z 21005KT 7SM FEW120 M02/M04 A2996 RMK AO2 SLP153 T10221039
Pressure 29.99 in
Visibility 7.0 miles
Clouds Few 12000 ft
Windchill 32 °F
Dew Point 28 °F
Humidity 85%
Rainfall 0.00 in
Snow Depth Not available.
7:42 AM 5:56 PM
Waning Crescent, 2% visible
METAR KARB 071253Z 21005KT 7SM FEW120 M02/M04 A2996 RMK AO2 SLP153 T10221039

10-Day Weather Forecast

Almanac

Astronomy

Feb. 07, 2016 Rise Set
Actual Time
Civil Twilight
Nautical Twilight
Astronomical Twilight
Moon
Length of Visible Light
Length of Day
Tomorrow will be .
, % of the Moon is Illuminated

Today's Extremes

State Highs State Lows

Community

WunderPhotos

Upload Photos

1,891,190 photos uploaded!

WunderBlog® & News

Nearby

Air Quality

  Air Quality AQ Index Pollutant
Not available.

Snow Depth

Station Depth Elevation

Earthquake Activity

City Distance Mag. Time & Date
Minimum magnitude displayed is 2.5.

Coastal Water Temperatures

Place Temperature

Stations

Nearby Weather Stations

Station Location Temp. Windchill Dew Point Humidity Wind Precip. Elev Updated Type
                   

Watches & Warnings

There are currently no watches in effect.